Ashby, Minnesota
Current Conditions -  °F | °C
As of 7:56 AM on Monday 20 Oct 2014 (Local Time) from KY63 Reporting Station
Clear Clear  
Wind Chill: 31°   Ceiling: Unl
Heat Index: 35°   Visibility: 10mi
Dew Point: 34°   Wind: 5mph
Humidity: 94%   Direction: 300°WNW
Pressure: 30.03"   Gusts: NA
Location:  46.09°N, 95.82°W
Report Text: KY63 201256Z AUTO 30004KT 10SM CLR 02/01 A3003 RMK AO2 T00170009
Loading
Personal Weather Stations






























Interactive Weather Map
Tropical Storm Tracking
New forecast layout! Learn more

10-Day Weather Forecast

Advertisements
Track Severe Weather on mobile